TimeAKDT,TemperatureF,Dew PointF,Humidity,Sea Level PressureIn,VisibilityMPH,Wind Direction,Wind SpeedMPH,Gust SpeedMPH,PrecipitationIn,Events,Conditions,WindDirDegrees,DateUTC
12:01 AM,66.0,44.1,45,30.18,10.0,West,4.6,-,N/A,,Clear,270,2013-06-13 08:01:00
1:01 AM,62.1,45.0,53,30.19,10.0,NNW,4.6,-,N/A,,Clear,340,2013-06-13 09:01:00
2:01 AM,60.1,43.0,53,30.19,10.0,Variable,3.5,-,N/A,,Clear,0,2013-06-13 10:01:00
3:01 AM,55.0,43.0,64,30.19,10.0,North,6.9,-,N/A,,Clear,350,2013-06-13 11:01:00
4:01 AM,54.0,43.0,66,30.20,10.0,North,6.9,-,N/A,,Clear,360,2013-06-13 12:01:00
5:01 AM,53.1,43.0,69,30.21,10.0,Calm,Calm,-,N/A,,Clear,0,2013-06-13 13:01:00
6:01 AM,54.0,44.1,69,30.21,10.0,NE,4.6,-,N/A,,Clear,50,2013-06-13 14:01:00
7:01 AM,55.0,46.0,72,30.21,10.0,Calm,Calm,-,N/A,,Clear,0,2013-06-13 15:01:00
8:01 AM,60.1,46.9,62,30.21,10.0,Calm,Calm,-,N/A,,Clear,0,2013-06-13 16:01:00
9:01 AM,62.1,46.0,56,30.22,10.0,Variable,3.5,-,N/A,,Clear,0,2013-06-13 17:01:00
10:01 AM,66.0,46.0,48,30.21,10.0,East,4.6,-,N/A,,Clear,90,2013-06-13 18:01:00
11:01 AM,72.0,46.0,40,30.21,10.0,East,6.9,-,N/A,,Clear,90,2013-06-13 19:01:00
12:01 PM,73.9,46.9,38,30.21,10.0,ESE,6.9,-,N/A,,Clear,110,2013-06-13 20:01:00
1:01 PM,77.0,42.1,29,30.20,10.0,South,9.2,-,N/A,,Clear,170,2013-06-13 21:01:00
2:01 PM,78.1,37.9,24,30.20,10.0,South,10.4,-,N/A,,Clear,170,2013-06-13 22:01:00
3:01 PM,78.1,37.0,23,30.20,10.0,South,10.4,18.4,N/A,,Partly Cloudy,180,2013-06-13 23:01:00
4:01 PM,79.0,36.0,21,30.19,10.0,South,10.4,19.6,N/A,,Scattered Clouds,180,2013-06-14 00:01:00
5:01 PM,79.0,37.0,22,30.18,10.0,SSW,10.4,19.6,N/A,,Clear,200,2013-06-14 01:01:00
6:01 PM,79.0,37.9,23,30.18,8.0,South,8.1,-,N/A,,Partly Cloudy,190,2013-06-14 02:01:00
7:01 PM,78.1,36.0,22,30.17,10.0,South,6.9,-,N/A,,Mostly Cloudy,180,2013-06-14 03:01:00
8:01 PM,79.0,36.0,21,30.16,10.0,South,6.9,-,N/A,,Scattered Clouds,190,2013-06-14 04:01:00
9:01 PM,78.1,37.0,23,30.15,9.0,South,4.6,-,N/A,,Scattered Clouds,180,2013-06-14 05:01:00
10:01 PM,77.0,36.0,23,30.15,10.0,Variable,4.6,-,N/A,,Clear,0,2013-06-14 06:01:00
11:01 PM,75.9,39.0,26,30.14,6.0,Calm,Calm,-,N/A,,Haze,0,2013-06-14 07:01:00